Pagrindinis puslapis
METAR-TAF:

METAR-TAF

Oro uostai :

Olesiundas, Norvegija

platuma: 62-34N, ilguma: 006-07E, Aukštis: 2 m

Dabartinis oras

Ataskaita buvo paskelbta 23 minutes, ne 19:20 UTC
Vėjas 19 kt iš Pietvakarių
Temperatūra 6°C
Drėgmė 81%
Slėgis 982 hPa
Matomumas 10 km arba daugiau
Mažai debesys ne aukštis 2200 ft
Išsisklaidę debesys ne aukštis 4300 ft

METAR: ENAL 051920Z 23019KT 9999 FEW022 SCT043 06/03 Q0982

Laikas: 20:43 (19:43 UTC)

Prognozė

Ataskaita buvo paskelbta 2 valandos ir 43 minutes, ne 17:00 UTC
Prognozė galioja nuo 05 metu 18 UTC su 05 metu 23 UTC
Vėjas 25 kt iš Pietvakarių
Matomumas 10 km arba daugiau
Mažai debesys ne aukštis 1500 ft
Su prošvaistėmis ne aukštis 2500 ft
lietus
Laikinai
nuo 05 metu 18 UTC su 05 metu 20 UTC
Vėjas 28 kt iš Vakarų/Pietvakarių su gūsio iki 38 kt
Laikinai
nuo 05 metu 18 UTC su 05 metu 23 UTC
Su prošvaistėmis ne aukštis 1400 ft, Liūtiniai kamuoliniai debesys.
lietus, ledo ar sniego kruopos

TAF: ENAL 051700Z 0518/0523 23025KT 9999 -SHRA FEW015 BKN025 TEMPO 0518/0520 24028G38KT TEMPO 0518/0523 SHRAGS BKN014CB

Orai ataskaitas ir orų prognozės (METAR, TAF).

turimą stotys yra geltonos ir raudonos taškus žemėlapyje.

Perkelti pele per norėdami pamatyti stoties vardą.

Tada spustelėkite, norėdami matyti oro stebėjimo ir prognozės.

Norėdami pakeisti žemėlapį: spustelėkite ant žalios mygtukų su juodo kryžiaus žemyn,; žalią mygtuką su brūkšneliu, jei norite nutolinti; arba žalių rodyklių gretimoms žemėlapius.


METAR-TAF: